sensor_id;sensor_type;location;lat;lon;timestamp;P1;durP1;ratioP1;P2;durP2;ratioP2
32108;SDS011;18624;50.042;8.436;2023-04-29T00:00:31;3.25;;;3.05;;
32108;SDS011;18624;50.042;8.436;2023-04-29T00:02:58;5.18;;;3.30;;
32108;SDS011;18624;50.042;8.436;2023-04-29T00:05:26;4.40;;;3.38;;
32108;SDS011;18624;50.042;8.436;2023-04-29T00:07:52;3.22;;;3.03;;
32108;SDS011;18624;50.042;8.436;2023-04-29T00:10:19;3.40;;;3.10;;
32108;SDS011;18624;50.042;8.436;2023-04-29T00:12:45;3.05;;;2.85;;
32108;SDS011;18624;50.042;8.436;2023-04-29T00:15:12;3.17;;;2.88;;
32108;SDS011;18624;50.042;8.436;2023-04-29T00:17:38;3.63;;;3.33;;
32108;SDS011;18624;50.042;8.436;2023-04-29T00:20:05;4.00;;;3.60;;
32108;SDS011;18624;50.042;8.436;2023-04-29T00:22:33;3.53;;;3.22;;
32108;SDS011;18624;50.042;8.436;2023-04-29T00:24:59;3.75;;;3.38;;
32108;SDS011;18624;50.042;8.436;2023-04-29T00:27:26;2.90;;;2.67;;
32108;SDS011;18624;50.042;8.436;2023-04-29T00:29:52;4.03;;;3.10;;
32108;SDS011;18624;50.042;8.436;2023-04-29T00:32:19;3.75;;;2.83;;
32108;SDS011;18624;50.042;8.436;2023-04-29T00:34:47;2.63;;;2.42;;
32108;SDS011;18624;50.042;8.436;2023-04-29T00:37:13;4.40;;;2.85;;
32108;SDS011;18624;50.042;8.436;2023-04-29T00:39:40;4.28;;;2.65;;
32108;SDS011;18624;50.042;8.436;2023-04-29T00:42:07;3.05;;;2.75;;
32108;SDS011;18624;50.042;8.436;2023-04-29T00:44:34;2.95;;;2.75;;
32108;SDS011;18624;50.042;8.436;2023-04-29T00:47:01;3.85;;;2.50;;
32108;SDS011;18624;50.042;8.436;2023-04-29T00:49:27;2.38;;;2.10;;
32108;SDS011;18624;50.042;8.436;2023-04-29T00:51:54;2.70;;;2.50;;
32108;SDS011;18624;50.042;8.436;2023-04-29T00:54:22;3.42;;;3.13;;
32108;SDS011;18624;50.042;8.436;2023-04-29T00:56:49;3.60;;;3.28;;
32108;SDS011;18624;50.042;8.436;2023-04-29T00:59:16;3.55;;;3.25;;
32108;SDS011;18624;50.042;8.436;2023-04-29T01:01:43;4.13;;;2.58;;
32108;SDS011;18624;50.042;8.436;2023-04-29T01:04:11;2.85;;;2.28;;
32108;SDS011;18624;50.042;8.436;2023-04-29T01:06:41;3.03;;;2.70;;
32108;SDS011;18624;50.042;8.436;2023-04-29T01:15:23;2.95;;;2.65;;
32108;SDS011;18624;50.042;8.436;2023-04-29T01:20:26;3.00;;;2.67;;
32108;SDS011;18624;50.042;8.436;2023-04-29T01:22:53;3.65;;;2.63;;
32108;SDS011;18624;50.042;8.436;2023-04-29T01:25:20;2.70;;;2.20;;
32108;SDS011;18624;50.042;8.436;2023-04-29T01:31:31;4.18;;;3.80;;
32108;SDS011;18624;50.042;8.436;2023-04-29T01:34:16;2.83;;;2.10;;
32108;SDS011;18624;50.042;8.436;2023-04-29T01:37:17;4.00;;;2.17;;
32108;SDS011;18624;50.042;8.436;2023-04-29T01:40:04;2.75;;;2.55;;
32108;SDS011;18624;50.042;8.436;2023-04-29T01:43:00;2.92;;;2.63;;
32108;SDS011;18624;50.042;8.436;2023-04-29T01:45:31;2.75;;;2.55;;
32108;SDS011;18624;50.042;8.436;2023-04-29T01:47:59;2.33;;;2.13;;
32108;SDS011;18624;50.042;8.436;2023-04-29T01:50:28;2.40;;;2.20;;
32108;SDS011;18624;50.042;8.436;2023-04-29T01:53:02;2.17;;;1.98;;
32108;SDS011;18624;50.042;8.436;2023-04-29T01:55:28;1.92;;;1.83;;
32108;SDS011;18624;50.042;8.436;2023-04-29T01:58:10;2.78;;;2.13;;
32108;SDS011;18624;50.042;8.436;2023-04-29T02:00:46;2.40;;;2.20;;
32108;SDS011;18624;50.042;8.436;2023-04-29T02:03:13;2.13;;;1.70;;
32108;SDS011;18624;50.042;8.436;2023-04-29T02:05:43;2.17;;;2.08;;
32108;SDS011;18624;50.042;8.436;2023-04-29T02:08:11;2.20;;;2.00;;
32108;SDS011;18624;50.042;8.436;2023-04-29T02:10:46;2.70;;;2.17;;
32108;SDS011;18624;50.042;8.436;2023-04-29T02:13:37;2.65;;;1.92;;
32108;SDS011;18624;50.042;8.436;2023-04-29T02:16:11;2.50;;;2.30;;
32108;SDS011;18624;50.042;8.436;2023-04-29T02:18:44;2.08;;;1.98;;
32108;SDS011;18624;50.042;8.436;2023-04-29T02:21:11;2.80;;;2.60;;
32108;SDS011;18624;50.042;8.436;2023-04-29T02:23:37;3.15;;;2.65;;
32108;SDS011;18624;50.042;8.436;2023-04-29T02:26:04;3.05;;;1.98;;
32108;SDS011;18624;50.042;8.436;2023-04-29T02:28:32;2.10;;;2.00;;
32108;SDS011;18624;50.042;8.436;2023-04-29T02:30:59;2.78;;;2.40;;
32108;SDS011;18624;50.042;8.436;2023-04-29T02:33:26;2.60;;;2.22;;
32108;SDS011;18624;50.042;8.436;2023-04-29T02:35:53;2.28;;;2.05;;
32108;SDS011;18624;50.042;8.436;2023-04-29T02:38:21;2.17;;;1.98;;
32108;SDS011;18624;50.042;8.436;2023-04-29T02:40:47;2.92;;;2.72;;
32108;SDS011;18624;50.042;8.436;2023-04-29T02:43:15;2.35;;;2.15;;
32108;SDS011;18624;50.042;8.436;2023-04-29T02:45:43;2.08;;;1.83;;
32108;SDS011;18624;50.042;8.436;2023-04-29T02:48:10;2.42;;;2.22;;
32108;SDS011;18624;50.042;8.436;2023-04-29T02:50:36;2.13;;;1.67;;
32108;SDS011;18624;50.042;8.436;2023-04-29T02:53:03;2.35;;;2.17;;
32108;SDS011;18624;50.042;8.436;2023-04-29T02:55:30;2.38;;;2.17;;
32108;SDS011;18624;50.042;8.436;2023-04-29T02:58:01;2.72;;;2.42;;
32108;SDS011;18624;50.042;8.436;2023-04-29T03:00:29;3.50;;;2.50;;
32108;SDS011;18624;50.042;8.436;2023-04-29T03:02:55;4.03;;;3.38;;
32108;SDS011;18624;50.042;8.436;2023-04-29T03:05:22;2.78;;;2.58;;
32108;SDS011;18624;50.042;8.436;2023-04-29T03:07:49;3.20;;;2.90;;
32108;SDS011;18624;50.042;8.436;2023-04-29T03:10:15;3.22;;;2.92;;
32108;SDS011;18624;50.042;8.436;2023-04-29T03:12:43;5.20;;;3.38;;
32108;SDS011;18624;50.042;8.436;2023-04-29T03:15:09;4.10;;;3.80;;
32108;SDS011;18624;50.042;8.436;2023-04-29T03:17:36;4.82;;;3.70;;
32108;SDS011;18624;50.042;8.436;2023-04-29T03:20:03;4.35;;;3.75;;
32108;SDS011;18624;50.042;8.436;2023-04-29T03:22:30;3.70;;;3.33;;
32108;SDS011;18624;50.042;8.436;2023-04-29T03:24:57;7.45;;;4.10;;
32108;SDS011;18624;50.042;8.436;2023-04-29T03:27:23;6.03;;;4.32;;
32108;SDS011;18624;50.042;8.436;2023-04-29T03:29:50;5.28;;;4.78;;
32108;SDS011;18624;50.042;8.436;2023-04-29T03:32:16;5.40;;;4.90;;
32108;SDS011;18624;50.042;8.436;2023-04-29T03:34:44;5.72;;;5.22;;
32108;SDS011;18624;50.042;8.436;2023-04-29T03:37:40;7.55;;;5.07;;
32108;SDS011;18624;50.042;8.436;2023-04-29T03:40:20;6.65;;;6.05;;
32108;SDS011;18624;50.042;8.436;2023-04-29T03:42:48;6.18;;;5.57;;
32108;SDS011;18624;50.042;8.436;2023-04-29T03:45:15;7.47;;;6.68;;
32108;SDS011;18624;50.042;8.436;2023-04-29T03:47:41;7.15;;;6.55;;
32108;SDS011;18624;50.042;8.436;2023-04-29T03:50:09;7.15;;;6.53;;
32108;SDS011;18624;50.042;8.436;2023-04-29T03:52:35;7.13;;;6.53;;
32108;SDS011;18624;50.042;8.436;2023-04-29T03:55:08;6.93;;;6.22;;
32108;SDS011;18624;50.042;8.436;2023-04-29T03:57:35;7.47;;;6.78;;
32108;SDS011;18624;50.042;8.436;2023-04-29T04:00:02;8.63;;;7.82;;
32108;SDS011;18624;50.042;8.436;2023-04-29T04:02:38;9.30;;;8.40;;
32108;SDS011;18624;50.042;8.436;2023-04-29T04:05:07;9.77;;;8.68;;
32108;SDS011;18624;50.042;8.436;2023-04-29T04:07:33;8.50;;;7.70;;
32108;SDS011;18624;50.042;8.436;2023-04-29T04:10:19;10.93;;;9.18;;
32108;SDS011;18624;50.042;8.436;2023-04-29T04:12:45;9.98;;;9.07;;
32108;SDS011;18624;50.042;8.436;2023-04-29T04:15:15;11.02;;;9.93;;
32108;SDS011;18624;50.042;8.436;2023-04-29T04:17:42;11.23;;;10.05;;
32108;SDS011;18624;50.042;8.436;2023-04-29T04:20:09;10.98;;;9.85;;
32108;SDS011;18624;50.042;8.436;2023-04-29T04:22:35;10.65;;;9.65;;
32108;SDS011;18624;50.042;8.436;2023-04-29T04:25:13;10.60;;;9.52;;
32108;SDS011;18624;50.042;8.436;2023-04-29T04:27:39;12.32;;;9.60;;
32108;SDS011;18624;50.042;8.436;2023-04-29T04:30:10;11.13;;;9.88;;
32108;SDS011;18624;50.042;8.436;2023-04-29T04:32:37;10.48;;;9.43;;
32108;SDS011;18624;50.042;8.436;2023-04-29T04:35:05;12.13;;;10.27;;
32108;SDS011;18624;50.042;8.436;2023-04-29T04:37:33;11.90;;;10.70;;
32108;SDS011;18624;50.042;8.436;2023-04-29T04:40:00;12.23;;;10.98;;
32108;SDS011;18624;50.042;8.436;2023-04-29T04:42:28;13.15;;;11.73;;
32108;SDS011;18624;50.042;8.436;2023-04-29T04:44:56;11.93;;;10.80;;
32108;SDS011;18624;50.042;8.436;2023-04-29T04:47:30;12.82;;;11.23;;
32108;SDS011;18624;50.042;8.436;2023-04-29T04:50:01;13.80;;;11.80;;
32108;SDS011;18624;50.042;8.436;2023-04-29T04:52:29;14.85;;;12.63;;
32108;SDS011;18624;50.042;8.436;2023-04-29T04:55:08;12.60;;;10.63;;
32108;SDS011;18624;50.042;8.436;2023-04-29T04:57:35;14.30;;;11.82;;
32108;SDS011;18624;50.042;8.436;2023-04-29T05:00:02;14.73;;;12.02;;
32108;SDS011;18624;50.042;8.436;2023-04-29T05:02:31;14.70;;;11.90;;
32108;SDS011;18624;50.042;8.436;2023-04-29T05:04:57;14.93;;;12.55;;
32108;SDS011;18624;50.042;8.436;2023-04-29T05:07:27;12.70;;;11.30;;
32108;SDS011;18624;50.042;8.436;2023-04-29T05:10:02;16.73;;;11.70;;
32108;SDS011;18624;50.042;8.436;2023-04-29T05:12:31;14.98;;;11.13;;
32108;SDS011;18624;50.042;8.436;2023-04-29T05:14:59;14.25;;;11.57;;
32108;SDS011;18624;50.042;8.436;2023-04-29T05:17:26;17.67;;;12.35;;
32108;SDS011;18624;50.042;8.436;2023-04-29T05:19:54;13.77;;;11.68;;
32108;SDS011;18624;50.042;8.436;2023-04-29T05:22:21;14.13;;;10.38;;
32108;SDS011;18624;50.042;8.436;2023-04-29T05:24:47;14.93;;;10.65;;
32108;SDS011;18624;50.042;8.436;2023-04-29T05:27:15;13.70;;;10.20;;
32108;SDS011;18624;50.042;8.436;2023-04-29T05:29:41;14.18;;;10.90;;
32108;SDS011;18624;50.042;8.436;2023-04-29T05:32:10;13.82;;;10.93;;
32108;SDS011;18624;50.042;8.436;2023-04-29T05:34:38;14.88;;;11.15;;
32108;SDS011;18624;50.042;8.436;2023-04-29T05:37:05;15.13;;;10.73;;
32108;SDS011;18624;50.042;8.436;2023-04-29T05:39:41;11.82;;;8.98;;
32108;SDS011;18624;50.042;8.436;2023-04-29T05:42:12;10.10;;;8.57;;
32108;SDS011;18624;50.042;8.436;2023-04-29T05:44:43;9.95;;;7.40;;
32108;SDS011;18624;50.042;8.436;2023-04-29T05:47:10;10.90;;;7.88;;
32108;SDS011;18624;50.042;8.436;2023-04-29T05:49:37;11.45;;;8.50;;
32108;SDS011;18624;50.042;8.436;2023-04-29T05:52:04;8.73;;;7.32;;
32108;SDS011;18624;50.042;8.436;2023-04-29T05:54:37;9.63;;;8.00;;
32108;SDS011;18624;50.042;8.436;2023-04-29T05:57:03;9.15;;;7.45;;
32108;SDS011;18624;50.042;8.436;2023-04-29T05:59:30;11.98;;;8.88;;
32108;SDS011;18624;50.042;8.436;2023-04-29T06:02:01;7.88;;;7.00;;
32108;SDS011;18624;50.042;8.436;2023-04-29T06:04:28;9.85;;;8.07;;
32108;SDS011;18624;50.042;8.436;2023-04-29T06:07:00;10.50;;;7.78;;
32108;SDS011;18624;50.042;8.436;2023-04-29T06:09:46;10.32;;;8.20;;
32108;SDS011;18624;50.042;8.436;2023-04-29T06:12:12;10.27;;;7.85;;
32108;SDS011;18624;50.042;8.436;2023-04-29T06:14:41;11.13;;;7.50;;
32108;SDS011;18624;50.042;8.436;2023-04-29T06:17:08;9.38;;;8.05;;
32108;SDS011;18624;50.042;8.436;2023-04-29T06:19:34;9.98;;;7.75;;
32108;SDS011;18624;50.042;8.436;2023-04-29T06:22:01;9.88;;;8.10;;
32108;SDS011;18624;50.042;8.436;2023-04-29T06:24:28;10.88;;;8.20;;
32108;SDS011;18624;50.042;8.436;2023-04-29T06:26:55;10.23;;;7.65;;
32108;SDS011;18624;50.042;8.436;2023-04-29T06:29:23;11.07;;;8.50;;
32108;SDS011;18624;50.042;8.436;2023-04-29T06:31:50;9.30;;;7.22;;
32108;SDS011;18624;50.042;8.436;2023-04-29T06:34:17;8.32;;;7.10;;
32108;SDS011;18624;50.042;8.436;2023-04-29T06:37:03;5.78;;;5.10;;
32108;SDS011;18624;50.042;8.436;2023-04-29T06:39:53;6.35;;;5.32;;
32108;SDS011;18624;50.042;8.436;2023-04-29T06:42:38;7.93;;;5.35;;
32108;SDS011;18624;50.042;8.436;2023-04-29T06:45:37;7.28;;;5.75;;
32108;SDS011;18624;50.042;8.436;2023-04-29T06:48:15;6.05;;;4.60;;
32108;SDS011;18624;50.042;8.436;2023-04-29T06:50:53;5.00;;;4.20;;
32108;SDS011;18624;50.042;8.436;2023-04-29T06:53:21;8.70;;;5.35;;
32108;SDS011;18624;50.042;8.436;2023-04-29T06:55:48;6.43;;;5.20;;
32108;SDS011;18624;50.042;8.436;2023-04-29T06:58:14;5.65;;;4.25;;
32108;SDS011;18624;50.042;8.436;2023-04-29T07:00:45;7.43;;;5.63;;
32108;SDS011;18624;50.042;8.436;2023-04-29T07:03:14;6.45;;;5.47;;
32108;SDS011;18624;50.042;8.436;2023-04-29T07:05:41;8.77;;;5.68;;
32108;SDS011;18624;50.042;8.436;2023-04-29T07:08:10;6.25;;;5.00;;
32108;SDS011;18624;50.042;8.436;2023-04-29T07:10:38;7.25;;;5.65;;
32108;SDS011;18624;50.042;8.436;2023-04-29T07:13:06;7.93;;;5.55;;
32108;SDS011;18624;50.042;8.436;2023-04-29T07:15:33;7.10;;;6.13;;
32108;SDS011;18624;50.042;8.436;2023-04-29T07:18:02;6.50;;;5.82;;
32108;SDS011;18624;50.042;8.436;2023-04-29T07:20:30;8.65;;;6.10;;
32108;SDS011;18624;50.042;8.436;2023-04-29T07:22:57;7.30;;;6.38;;
32108;SDS011;18624;50.042;8.436;2023-04-29T07:25:25;7.85;;;5.80;;
32108;SDS011;18624;50.042;8.436;2023-04-29T07:27:54;9.00;;;6.88;;
32108;SDS011;18624;50.042;8.436;2023-04-29T07:30:23;6.57;;;5.60;;
32108;SDS011;18624;50.042;8.436;2023-04-29T07:32:50;7.85;;;6.00;;
32108;SDS011;18624;50.042;8.436;2023-04-29T07:35:17;8.38;;;6.47;;
32108;SDS011;18624;50.042;8.436;2023-04-29T07:37:43;7.97;;;6.30;;
32108;SDS011;18624;50.042;8.436;2023-04-29T07:40:11;8.73;;;6.55;;
32108;SDS011;18624;50.042;8.436;2023-04-29T07:42:37;10.05;;;6.60;;
32108;SDS011;18624;50.042;8.436;2023-04-29T07:45:05;8.50;;;6.82;;
32108;SDS011;18624;50.042;8.436;2023-04-29T07:47:32;14.45;;;10.25;;
32108;SDS011;18624;50.042;8.436;2023-04-29T07:49:59;8.07;;;6.63;;
32108;SDS011;18624;50.042;8.436;2023-04-29T07:52:26;7.35;;;6.20;;
32108;SDS011;18624;50.042;8.436;2023-04-29T07:54:52;7.45;;;6.32;;
32108;SDS011;18624;50.042;8.436;2023-04-29T07:57:21;6.72;;;5.90;;
32108;SDS011;18624;50.042;8.436;2023-04-29T07:59:54;8.15;;;7.10;;
32108;SDS011;18624;50.042;8.436;2023-04-29T08:02:20;8.60;;;6.03;;
32108;SDS011;18624;50.042;8.436;2023-04-29T08:04:47;8.25;;;7.30;;
32108;SDS011;18624;50.042;8.436;2023-04-29T08:07:16;7.22;;;6.50;;
32108;SDS011;18624;50.042;8.436;2023-04-29T08:09:43;7.10;;;5.55;;
32108;SDS011;18624;50.042;8.436;2023-04-29T08:12:09;7.68;;;6.10;;
32108;SDS011;18624;50.042;8.436;2023-04-29T08:14:38;6.63;;;5.30;;
32108;SDS011;18624;50.042;8.436;2023-04-29T08:17:05;5.70;;;4.63;;
32108;SDS011;18624;50.042;8.436;2023-04-29T08:19:32;6.80;;;5.93;;
32108;SDS011;18624;50.042;8.436;2023-04-29T08:21:58;7.43;;;6.40;;
32108;SDS011;18624;50.042;8.436;2023-04-29T08:24:26;7.72;;;6.68;;
32108;SDS011;18624;50.042;8.436;2023-04-29T08:26:54;6.35;;;5.53;;
32108;SDS011;18624;50.042;8.436;2023-04-29T08:29:20;6.60;;;4.95;;
32108;SDS011;18624;50.042;8.436;2023-04-29T08:31:46;6.68;;;5.68;;
32108;SDS011;18624;50.042;8.436;2023-04-29T08:34:13;8.65;;;5.95;;
32108;SDS011;18624;50.042;8.436;2023-04-29T08:36:40;6.32;;;5.55;;
32108;SDS011;18624;50.042;8.436;2023-04-29T08:39:06;10.95;;;6.32;;
32108;SDS011;18624;50.042;8.436;2023-04-29T08:41:33;7.57;;;6.53;;
32108;SDS011;18624;50.042;8.436;2023-04-29T08:43:59;7.28;;;5.63;;
32108;SDS011;18624;50.042;8.436;2023-04-29T08:46:26;8.75;;;5.97;;
32108;SDS011;18624;50.042;8.436;2023-04-29T08:48:52;8.68;;;6.93;;
32108;SDS011;18624;50.042;8.436;2023-04-29T08:51:21;6.22;;;4.57;;
32108;SDS011;18624;50.042;8.436;2023-04-29T08:53:48;6.40;;;4.43;;
32108;SDS011;18624;50.042;8.436;2023-04-29T08:56:15;5.10;;;4.35;;
32108;SDS011;18624;50.042;8.436;2023-04-29T08:58:47;8.02;;;6.10;;
32108;SDS011;18624;50.042;8.436;2023-04-29T09:01:20;7.35;;;5.65;;
32108;SDS011;18624;50.042;8.436;2023-04-29T09:03:49;6.60;;;5.55;;
32108;SDS011;18624;50.042;8.436;2023-04-29T09:06:22;7.53;;;5.53;;
32108;SDS011;18624;50.042;8.436;2023-04-29T09:08:48;13.00;;;6.65;;
32108;SDS011;18624;50.042;8.436;2023-04-29T09:11:15;7.55;;;5.30;;
32108;SDS011;18624;50.042;8.436;2023-04-29T09:13:42;7.07;;;5.20;;
32108;SDS011;18624;50.042;8.436;2023-04-29T09:16:09;6.50;;;5.68;;
32108;SDS011;18624;50.042;8.436;2023-04-29T09:18:42;5.35;;;4.38;;
32108;SDS011;18624;50.042;8.436;2023-04-29T09:21:17;5.20;;;4.70;;
32108;SDS011;18624;50.042;8.436;2023-04-29T09:23:51;5.07;;;4.05;;
32108;SDS011;18624;50.042;8.436;2023-04-29T09:26:22;6.57;;;5.05;;
32108;SDS011;18624;50.042;8.436;2023-04-29T09:29:11;5.32;;;4.00;;
32108;SDS011;18624;50.042;8.436;2023-04-29T09:31:39;5.80;;;4.50;;
32108;SDS011;18624;50.042;8.436;2023-04-29T09:34:07;5.30;;;4.30;;
32108;SDS011;18624;50.042;8.436;2023-04-29T09:36:45;5.30;;;4.30;;
32108;SDS011;18624;50.042;8.436;2023-04-29T09:39:16;6.47;;;4.13;;
32108;SDS011;18624;50.042;8.436;2023-04-29T09:44:20;7.97;;;4.78;;
32108;SDS011;18624;50.042;8.436;2023-04-29T09:46:57;6.47;;;4.65;;
32108;SDS011;18624;50.042;8.436;2023-04-29T09:51:57;5.82;;;5.13;;
32108;SDS011;18624;50.042;8.436;2023-04-29T09:54:26;7.57;;;5.70;;
32108;SDS011;18624;50.042;8.436;2023-04-29T09:56:55;6.30;;;5.25;;
32108;SDS011;18624;50.042;8.436;2023-04-29T09:59:22;5.65;;;5.00;;
32108;SDS011;18624;50.042;8.436;2023-04-29T10:01:56;5.85;;;4.45;;
32108;SDS011;18624;50.042;8.436;2023-04-29T10:04:24;9.27;;;5.47;;
32108;SDS011;18624;50.042;8.436;2023-04-29T10:06:53;5.03;;;4.53;;
32108;SDS011;18624;50.042;8.436;2023-04-29T10:09:21;5.57;;;4.65;;
32108;SDS011;18624;50.042;8.436;2023-04-29T10:11:49;5.95;;;5.35;;
32108;SDS011;18624;50.042;8.436;2023-04-29T10:14:18;6.30;;;5.57;;
32108;SDS011;18624;50.042;8.436;2023-04-29T10:17:02;7.50;;;6.40;;
32108;SDS011;18624;50.042;8.436;2023-04-29T10:19:47;6.70;;;5.60;;
32108;SDS011;18624;50.042;8.436;2023-04-29T10:22:36;6.82;;;5.50;;
32108;SDS011;18624;50.042;8.436;2023-04-29T10:25:10;5.30;;;4.78;;
32108;SDS011;18624;50.042;8.436;2023-04-29T10:27:37;7.70;;;5.93;;
32108;SDS011;18624;50.042;8.436;2023-04-29T10:30:06;6.70;;;5.93;;
32108;SDS011;18624;50.042;8.436;2023-04-29T10:32:37;6.03;;;5.30;;
32108;SDS011;18624;50.042;8.436;2023-04-29T10:35:16;5.22;;;4.47;;
32108;SDS011;18624;50.042;8.436;2023-04-29T10:37:45;8.52;;;5.53;;
32108;SDS011;18624;50.042;8.436;2023-04-29T10:40:16;5.20;;;4.65;;
32108;SDS011;18624;50.042;8.436;2023-04-29T10:42:48;5.25;;;4.75;;
32108;SDS011;18624;50.042;8.436;2023-04-29T10:53:12;6.22;;;4.43;;
32108;SDS011;18624;50.042;8.436;2023-04-29T10:55:48;5.43;;;4.20;;
32108;SDS011;18624;50.042;8.436;2023-04-29T11:01:06;4.35;;;3.95;;
32108;SDS011;18624;50.042;8.436;2023-04-29T11:03:49;3.90;;;3.08;;
32108;SDS011;18624;50.042;8.436;2023-04-29T11:06:21;4.97;;;3.63;;
32108;SDS011;18624;50.042;8.436;2023-04-29T11:09:00;5.00;;;3.53;;
32108;SDS011;18624;50.042;8.436;2023-04-29T11:11:42;2.90;;;2.42;;
32108;SDS011;18624;50.042;8.436;2023-04-29T11:14:11;3.90;;;3.45;;
32108;SDS011;18624;50.042;8.436;2023-04-29T11:16:46;3.13;;;2.70;;
32108;SDS011;18624;50.042;8.436;2023-04-29T11:19:15;4.25;;;2.60;;
32108;SDS011;18624;50.042;8.436;2023-04-29T11:21:43;2.83;;;2.58;;
32108;SDS011;18624;50.042;8.436;2023-04-29T11:24:12;4.05;;;2.97;;
32108;SDS011;18624;50.042;8.436;2023-04-29T11:26:41;3.83;;;3.42;;
32108;SDS011;18624;50.042;8.436;2023-04-29T11:29:09;4.15;;;2.83;;
32108;SDS011;18624;50.042;8.436;2023-04-29T11:31:35;3.33;;;2.63;;
32108;SDS011;18624;50.042;8.436;2023-04-29T11:34:04;4.57;;;2.47;;
32108;SDS011;18624;50.042;8.436;2023-04-29T11:36:32;3.67;;;3.35;;
32108;SDS011;18624;50.042;8.436;2023-04-29T11:39:00;3.05;;;2.58;;
32108;SDS011;18624;50.042;8.436;2023-04-29T11:41:28;2.60;;;2.17;;
32108;SDS011;18624;50.042;8.436;2023-04-29T11:43:57;2.75;;;2.20;;
32108;SDS011;18624;50.042;8.436;2023-04-29T11:46:25;3.10;;;2.47;;
32108;SDS011;18624;50.042;8.436;2023-04-29T11:48:53;2.75;;;2.15;;
32108;SDS011;18624;50.042;8.436;2023-04-29T11:51:23;3.63;;;2.60;;
32108;SDS011;18624;50.042;8.436;2023-04-29T11:53:50;2.83;;;2.15;;
32108;SDS011;18624;50.042;8.436;2023-04-29T11:56:16;2.92;;;2.58;;
32108;SDS011;18624;50.042;8.436;2023-04-29T11:58:48;2.75;;;2.35;;
32108;SDS011;18624;50.042;8.436;2023-04-29T12:01:14;2.65;;;2.13;;
32108;SDS011;18624;50.042;8.436;2023-04-29T12:03:41;2.53;;;2.08;;
32108;SDS011;18624;50.042;8.436;2023-04-29T12:06:09;3.22;;;2.58;;
32108;SDS011;18624;50.042;8.436;2023-04-29T12:08:35;2.72;;;2.17;;
32108;SDS011;18624;50.042;8.436;2023-04-29T12:11:02;2.67;;;2.00;;
32108;SDS011;18624;50.042;8.436;2023-04-29T12:13:29;2.35;;;1.95;;
32108;SDS011;18624;50.042;8.436;2023-04-29T12:15:56;2.72;;;2.28;;
32108;SDS011;18624;50.042;8.436;2023-04-29T12:18:23;2.65;;;2.22;;
32108;SDS011;18624;50.042;8.436;2023-04-29T12:20:52;2.97;;;2.20;;
32108;SDS011;18624;50.042;8.436;2023-04-29T12:23:24;2.40;;;2.00;;
32108;SDS011;18624;50.042;8.436;2023-04-29T12:25:57;2.92;;;2.63;;
32108;SDS011;18624;50.042;8.436;2023-04-29T12:28:25;2.85;;;2.28;;
32108;SDS011;18624;50.042;8.436;2023-04-29T12:30:52;3.53;;;2.45;;
32108;SDS011;18624;50.042;8.436;2023-04-29T12:33:20;2.53;;;2.25;;
32108;SDS011;18624;50.042;8.436;2023-04-29T12:35:48;2.38;;;2.15;;
32108;SDS011;18624;50.042;8.436;2023-04-29T12:38:19;2.30;;;2.08;;
32108;SDS011;18624;50.042;8.436;2023-04-29T12:40:47;2.70;;;2.50;;
32108;SDS011;18624;50.042;8.436;2023-04-29T12:43:14;2.95;;;2.35;;
32108;SDS011;18624;50.042;8.436;2023-04-29T12:45:41;2.10;;;1.77;;
32108;SDS011;18624;50.042;8.436;2023-04-29T12:48:07;2.83;;;2.55;;
32108;SDS011;18624;50.042;8.436;2023-04-29T12:50:51;3.30;;;2.83;;
32108;SDS011;18624;50.042;8.436;2023-04-29T12:53:18;3.05;;;2.13;;
32108;SDS011;18624;50.042;8.436;2023-04-29T12:55:44;2.58;;;2.13;;
32108;SDS011;18624;50.042;8.436;2023-04-29T12:58:11;2.85;;;2.05;;
32108;SDS011;18624;50.042;8.436;2023-04-29T13:00:38;2.90;;;2.50;;
32108;SDS011;18624;50.042;8.436;2023-04-29T13:03:05;3.97;;;2.55;;
32108;SDS011;18624;50.042;8.436;2023-04-29T13:05:32;2.95;;;2.75;;
32108;SDS011;18624;50.042;8.436;2023-04-29T13:07:59;3.33;;;3.03;;
32108;SDS011;18624;50.042;8.436;2023-04-29T13:10:25;3.47;;;3.17;;
32108;SDS011;18624;50.042;8.436;2023-04-29T13:12:53;3.55;;;3.25;;
32108;SDS011;18624;50.042;8.436;2023-04-29T13:15:20;3.45;;;3.15;;
32108;SDS011;18624;50.042;8.436;2023-04-29T13:17:46;2.63;;;2.42;;
32108;SDS011;18624;50.042;8.436;2023-04-29T13:20:13;4.38;;;2.88;;
32108;SDS011;18624;50.042;8.436;2023-04-29T13:22:40;3.22;;;2.88;;
32108;SDS011;18624;50.042;8.436;2023-04-29T13:25:08;4.45;;;4.05;;
32108;SDS011;18624;50.042;8.436;2023-04-29T13:27:37;3.47;;;3.00;;
32108;SDS011;18624;50.042;8.436;2023-04-29T13:30:04;2.63;;;2.42;;
32108;SDS011;18624;50.042;8.436;2023-04-29T13:32:31;3.17;;;2.65;;
32108;SDS011;18624;50.042;8.436;2023-04-29T13:35:11;3.17;;;2.97;;
32108;SDS011;18624;50.042;8.436;2023-04-29T13:37:38;3.70;;;3.40;;
32108;SDS011;18624;50.042;8.436;2023-04-29T13:40:04;3.35;;;3.05;;
32108;SDS011;18624;50.042;8.436;2023-04-29T13:42:33;3.47;;;3.03;;
32108;SDS011;18624;50.042;8.436;2023-04-29T13:45:10;3.40;;;3.10;;
32108;SDS011;18624;50.042;8.436;2023-04-29T13:47:36;2.55;;;2.30;;
32108;SDS011;18624;50.042;8.436;2023-04-29T13:50:23;3.00;;;2.70;;
32108;SDS011;18624;50.042;8.436;2023-04-29T13:53:10;4.28;;;3.00;;
32108;SDS011;18624;50.042;8.436;2023-04-29T13:55:56;3.50;;;3.20;;
32108;SDS011;18624;50.042;8.436;2023-04-29T13:58:44;4.15;;;3.72;;
32108;SDS011;18624;50.042;8.436;2023-04-29T14:01:31;5.22;;;4.22;;
32108;SDS011;18624;50.042;8.436;2023-04-29T14:04:00;4.35;;;3.78;;
32108;SDS011;18624;50.042;8.436;2023-04-29T14:06:27;4.00;;;3.60;;
32108;SDS011;18624;50.042;8.436;2023-04-29T14:08:54;4.53;;;4.10;;
32108;SDS011;18624;50.042;8.436;2023-04-29T14:11:20;4.43;;;4.03;;
32108;SDS011;18624;50.042;8.436;2023-04-29T14:13:47;3.90;;;3.50;;
32108;SDS011;18624;50.042;8.436;2023-04-29T14:16:13;3.95;;;3.55;;
32108;SDS011;18624;50.042;8.436;2023-04-29T14:18:40;16.05;;;4.90;;
32108;SDS011;18624;50.042;8.436;2023-04-29T14:21:06;3.95;;;3.65;;
32108;SDS011;18624;50.042;8.436;2023-04-29T14:23:33;6.03;;;3.72;;
32108;SDS011;18624;50.042;8.436;2023-04-29T14:26:00;4.22;;;3.83;;
32108;SDS011;18624;50.042;8.436;2023-04-29T14:28:46;4.45;;;4.05;;
32108;SDS011;18624;50.042;8.436;2023-04-29T14:31:13;4.05;;;3.63;;
32108;SDS011;18624;50.042;8.436;2023-04-29T14:33:40;3.72;;;3.40;;
32108;SDS011;18624;50.042;8.436;2023-04-29T14:36:06;3.70;;;3.10;;
32108;SDS011;18624;50.042;8.436;2023-04-29T14:38:34;3.92;;;3.63;;
32108;SDS011;18624;50.042;8.436;2023-04-29T14:41:00;3.58;;;3.28;;
32108;SDS011;18624;50.042;8.436;2023-04-29T14:43:27;3.85;;;3.45;;
32108;SDS011;18624;50.042;8.436;2023-04-29T14:45:54;3.20;;;2.22;;
32108;SDS011;18624;50.042;8.436;2023-04-29T14:48:21;4.07;;;3.08;;
32108;SDS011;18624;50.042;8.436;2023-04-29T14:50:47;3.28;;;3.00;;
32108;SDS011;18624;50.042;8.436;2023-04-29T14:53:14;3.30;;;3.00;;
32108;SDS011;18624;50.042;8.436;2023-04-29T14:55:40;4.25;;;3.58;;
32108;SDS011;18624;50.042;8.436;2023-04-29T14:58:07;4.60;;;3.50;;
32108;SDS011;18624;50.042;8.436;2023-04-29T15:00:35;3.78;;;2.78;;
32108;SDS011;18624;50.042;8.436;2023-04-29T15:03:01;3.50;;;3.20;;
32108;SDS011;18624;50.042;8.436;2023-04-29T15:05:30;5.30;;;3.67;;
32108;SDS011;18624;50.042;8.436;2023-04-29T15:07:56;5.70;;;4.03;;
32108;SDS011;18624;50.042;8.436;2023-04-29T15:10:25;5.28;;;4.07;;
32108;SDS011;18624;50.042;8.436;2023-04-29T15:12:52;5.50;;;4.13;;
32108;SDS011;18624;50.042;8.436;2023-04-29T15:15:19;4.40;;;4.00;;
32108;SDS011;18624;50.042;8.436;2023-04-29T15:17:47;4.38;;;3.97;;
32108;SDS011;18624;50.042;8.436;2023-04-29T15:20:13;5.95;;;4.20;;
32108;SDS011;18624;50.042;8.436;2023-04-29T15:22:40;6.03;;;5.43;;
32108;SDS011;18624;50.042;8.436;2023-04-29T15:25:07;4.78;;;4.38;;
32108;SDS011;18624;50.042;8.436;2023-04-29T15:27:35;6.82;;;5.38;;